Current Weather Conditions: station NFBF1

sailwx.info

Wind from 280 at 8 knots gusting 9

Air temperature 26.4° C

Last reported at 2014-Oct-31 18:54 UTC.
Time now 2014-Nov-01 11:14 UTC

Location: N 25°05' W 081°05'.
View on Google Maps.

See reports from other nearby stations

  
Tides and Currents Weather Stations Pressure Air Temp Water Temp Dewpoint Dewpoint Depression Visibility Wind Speed Wind Dir Waves Ship Positions
date/time (UTC)wind fromknots sea level pressurealtimeterstation pressurevisibilityair tempwater tempwave heightnotes
2014-Oct-31 18:54 280 8 gusting 9 26.4
2014-Oct-31 17:54 300 6 gusting 7 26.1
2014-Oct-31 17:48 290 6 gusting 7 26.1
2014-Oct-31 17:42 280 5 gusting 6 26.1
2014-Oct-31 17:36 300 6 gusting 8 26.1
2014-Oct-31 17:30 300 7 gusting 8 26.2
2014-Oct-31 17:24 260 7 gusting 8 26.5
2014-Oct-31 17:18 260 8 gusting 9 26.5
2014-Oct-31 17:12 260 7 gusting 10 26.5
2014-Oct-31 17:06 260 7 gusting 9 26.5
2014-Oct-31 17:00 260 8 gusting 9 26.5
2014-Oct-31 16:54 260 8 gusting 9 26.4
2014-Oct-31 16:48 260 8 gusting 9 26.5
2014-Oct-31 16:42 260 8 gusting 9 26.6
2014-Oct-31 16:36 260 8 gusting 9 26.5
2014-Oct-31 16:30 260 8 gusting 9 26.4
2014-Oct-31 16:24 260 9 gusting 11 26.4
2014-Oct-31 16:18 260 8 gusting 9 26.4
2014-Oct-31 16:12 270 8 gusting 10 26.4
2014-Oct-31 16:06 270 9 gusting 10 26.4
2014-Oct-31 16:00 270 9 gusting 10 26.4
2014-Oct-31 15:54 270 9 gusting 10 26.3
2014-Oct-31 15:48 270 9 gusting 11 26.4
2014-Oct-31 14:54 260 8 gusting 10 26.2
2014-Oct-31 14:48 260 9 gusting 11 26.2
2014-Oct-31 13:54 260 7 gusting 8 26.2
2014-Oct-31 13:48 270 8 gusting 9 26.2
2014-Oct-31 12:54 250 6 gusting 7 26.1
2014-Oct-31 12:48 260 6 gusting 7 26.1
2014-Oct-31 11:54 290 6 gusting 8 26.0
2014-Oct-31 11:48 280 6 gusting 7 26.1
2014-Oct-31 11:42 290 6 gusting 7 26.0
2014-Oct-31 11:36 270 5 gusting 7 25.9
2014-Oct-31 11:30 280 6 gusting 8 26.0
2014-Oct-31 11:24 290 6 gusting 7 26.0
2014-Oct-31 11:18 290 6 gusting 7 26.0
2014-Oct-31 11:12 290 6 gusting 7 26.0
2014-Oct-31 11:06 280 7 gusting 8 26.0
2014-Oct-31 11:00 290 7 gusting 8 26.0
2014-Oct-31 10:54 290 7 gusting 8 26.0
2014-Oct-31 10:48 290 6 gusting 8 26.0
2014-Oct-31 10:42 300 7 gusting 8 25.9
2014-Oct-31 10:36 280 6 gusting 7 25.8
2014-Oct-31 10:30 240 3 gusting 5 25.6
2014-Oct-31 10:24 250 3 gusting 4 25.5
2014-Oct-31 10:18 210 2 gusting 3 25.4
2014-Oct-31 10:12 220 2 gusting 3 25.4
2014-Oct-31 10:06 260 3 gusting 4 25.4
2014-Oct-31 10:00 210 1 gusting 3 25.5
2014-Oct-31 09:54 230 2 gusting 3 25.4
2014-Oct-31 09:48 240 2 gusting 3 25.4
2014-Oct-31 08:54 25.3
2014-Oct-31 08:48 25.3
2014-Oct-31 08:42 25.2
2014-Oct-31 08:36 25.1
2014-Oct-31 08:30 25.1
2014-Oct-31 08:24 25.1
2014-Oct-31 08:18 070 2 gusting 4 25.0
2014-Oct-31 08:12 060 3 gusting 4 24.7
2014-Oct-31 08:06 050 5 gusting 6 24.6
2014-Oct-31 08:00 050 7 gusting 9 24.6
2014-Oct-31 07:54 070 6 gusting 7 24.6
2014-Oct-31 07:48 070 6 gusting 7 24.7
2014-Oct-31 07:30 080 5 gusting 6 24.6
2014-Oct-31 07:24 080 6 gusting 7 24.7
2014-Oct-31 07:18 100 6 gusting 8 24.7
2014-Oct-31 07:12 110 5 gusting 6 24.8
2014-Oct-31 07:06 110 6 gusting 7 24.6
2014-Oct-31 07:00 100 7 gusting 9 24.6
2014-Oct-31 06:54 110 5 gusting 7 24.9
2014-Oct-31 06:48 25.0
2014-Oct-31 05:54 140 5 gusting 11 25.3
2014-Oct-31 05:48 130 5 gusting 12 25.3
2014-Oct-31 04:54 360 5 gusting 8 25.7
2014-Oct-31 04:48 020 3 gusting 5 25.6
2014-Oct-31 03:54 220 5 gusting 5 26.2
2014-Oct-31 03:48 220 4 gusting 5 26.2
2014-Oct-31 03:42 230 4 gusting 5 26.3
2014-Oct-31 03:36 230 4 gusting 5 26.3
2014-Oct-31 03:30 220 3 gusting 4 26.2
2014-Oct-31 03:24 250 3 gusting 4 26.2
2014-Oct-31 03:18 240 3 gusting 4 26.2
2014-Oct-31 03:12 250 3 gusting 4 26.3
2014-Oct-31 03:06 230 3 gusting 4 26.3
2014-Oct-31 03:00 260 3 gusting 5 26.3
2014-Oct-31 02:54 250 3 gusting 4 26.2
2014-Oct-31 02:48 250 3 gusting 4 26.2
2014-Oct-31 01:54 280 4 gusting 5 26.3
2014-Oct-31 01:48 280 3 gusting 5 26.3
2014-Oct-31 00:54 280 4 gusting 5 26.3
2014-Oct-31 00:48 280 4 gusting 5 26.4
2014-Oct-31 00:42 290 3 gusting 4 26.4
2014-Oct-31 00:36 280 3 gusting 4 26.4
2014-Oct-31 00:30 290 3 gusting 5 26.4
2014-Oct-31 00:24 260 3 gusting 4 26.4
2014-Oct-31 00:18 290 4 gusting 5 26.4
2014-Oct-31 00:12 280 4 gusting 5 26.4
2014-Oct-31 00:06 280 4 gusting 5 26.4
2014-Oct-31 00:00 280 4 gusting 5 26.4
2014-Oct-30 22:54 280 6 gusting 7 26.4
2014-Oct-30 22:48 280 5 gusting 6 26.4
2014-Oct-30 22:42 270 5 gusting 5 26.4
2014-Oct-30 22:36 270 5 gusting 5 26.5
2014-Oct-30 22:30 280 5 gusting 6 26.5
2014-Oct-30 22:24 270 6 gusting 6 26.5
2014-Oct-30 22:18 270 6 gusting 6 26.6
2014-Oct-30 22:12 270 5 gusting 6 26.6
2014-Oct-30 22:06 260 5 gusting 6 26.6
2014-Oct-30 22:00 270 6 gusting 6 26.7
2014-Oct-30 21:54 270 6 gusting 7 26.6
2014-Oct-30 21:48 260 6 gusting 7 26.6
2014-Oct-30 20:54 270 6 gusting 7 26.5
2014-Oct-30 20:48 270 6 gusting 7 26.5
2014-Oct-30 20:42 260 6 gusting 7 26.5
2014-Oct-30 20:36 260 7 gusting 8 26.5
2014-Oct-30 20:30 260 7 gusting 7 26.5
2014-Oct-30 20:24 260 7 gusting 8 26.5
2014-Oct-30 20:18 260 7 gusting 8 26.5
2014-Oct-30 20:12 250 6 gusting 8 26.5
2014-Oct-30 20:06 250 7 gusting 8 26.5
2014-Oct-30 20:00 250 7 gusting 8 26.5
2014-Oct-30 19:54 260 7 gusting 8 26.4
2014-Oct-30 19:48 260 7 gusting 8 26.4
2014-Oct-30 19:42 260 6 gusting 8 26.4
2014-Oct-30 19:36 260 6 gusting 8 26.4
2014-Oct-30 19:30 260 6 gusting 8 26.4
2014-Oct-30 19:24 260 6 gusting 7 26.4
2014-Oct-30 19:18 260 6 gusting 8 26.4
2014-Oct-30 19:12 270 6 gusting 7 26.4
2014-Oct-30 19:06 260 7 gusting 8 26.3
2014-Oct-30 19:00 270 7 gusting 8 26.3
2014-Oct-30 18:54 270 6 gusting 7 26.3
2014-Oct-30 18:48 260 6 gusting 7 26.2
2014-Oct-30 17:54 250 6 gusting 6 26.1
2014-Oct-30 17:48 260 5 gusting 6 26.1
2014-Oct-30 16:54 220 4 gusting 4 26.2
2014-Oct-30 16:48 200 3 gusting 4 26.2
2014-Oct-30 16:30 210 2 gusting 3 26.4
2014-Oct-30 16:24 190 2 gusting 3 26.6
2014-Oct-30 16:18 190 1 gusting 2 27.0
2014-Oct-30 16:12 180 1 gusting 2 27.1
2014-Oct-30 16:06 27.2
2014-Oct-30 16:00 26.9
2014-Oct-30 15:54 110 2 gusting 3 26.6
2014-Oct-30 15:48 100 2 gusting 3 26.4
2014-Oct-30 14:54 090 2 gusting 3 26.1
2014-Oct-30 14:48 080 3 gusting 4 26.0
2014-Oct-30 14:42 080 3 gusting 4 26.0
2014-Oct-30 14:36 100 3 gusting 4 26.0
2014-Oct-30 14:30 090 3 gusting 4 26.1
2014-Oct-30 14:24 080 3 gusting 3 26.1
2014-Oct-30 14:18 080 3 gusting 3 26.1
2014-Oct-30 14:12 090 2 gusting 3 26.2
2014-Oct-30 14:06 080 2 gusting 3 26.3
2014-Oct-30 14:00 070 2 gusting 3 26.4
2014-Oct-30 13:54 060 3 gusting 4 26.3
2014-Oct-30 13:48 060 3 gusting 4 26.4
2014-Oct-30 13:42 060 3 gusting 4 26.1
2014-Oct-30 13:36 060 3 gusting 3 26.0
2014-Oct-30 13:30 040 2 gusting 4 25.9
2014-Oct-30 13:24 050 2 gusting 3 25.9
2014-Oct-30 13:18 040 3 gusting 3 25.9
2014-Oct-30 13:12 050 3 gusting 4 25.9
2014-Oct-30 13:06 050 2 gusting 3 25.8
2014-Oct-30 13:00 060 2 gusting 2 25.7
2014-Oct-30 12:54 060 1 gusting 2 25.7
2014-Oct-30 12:48 050 1 gusting 2 25.6
2014-Oct-30 11:54 050 2 gusting 3 25.3
2014-Oct-30 11:48 050 2 gusting 3 25.3